Time;durP1;ratioP1;P1;durP2;ratioP2;P2;SDS_P1;SDS_P2;PMS_P1;PMS_P2;Temp;Humidity;BMP_temperature;BMP_pressure;BME280_temperature;BME280_humidity;BME280_pressure;Samples;Min_cycle;Max_cycle;Signal;HPM_P1;HPM_P2
2022/04/22 00:00:07;;;;;;;7.80;3.97;;;10.30;72.00;;;;;;5028388;28;20087;-64
2022/04/22 00:02:34;;;;;;;9.32;3.72;;;10.30;72.00;;;;;;5032030;28;20049;-64
2022/04/22 00:05:01;;;;;;;9.90;3.78;;;10.30;72.00;;;;;;5027730;28;20048;-64
2022/04/22 00:07:35;;;;;;;10.63;4.05;;;10.20;72.10;;;;;;5028246;28;20037;-64
2022/04/22 00:10:02;;;;;;;7.18;3.72;;;10.20;72.10;;;;;;5030075;28;20041;-65
2022/04/22 00:12:29;;;;;;;6.07;3.28;;;10.20;72.10;;;;;;5012571;28;20502;-64
2022/04/22 00:14:58;;;;;;;8.18;3.83;;;10.10;72.00;;;;;;5032099;28;20065;-63
2022/04/22 00:17:25;;;;;;;8.35;3.58;;;10.10;72.00;;;;;;5030292;28;20104;-64
2022/04/22 00:19:52;;;;;;;7.90;3.40;;;10.00;72.10;;;;;;5030838;28;20049;-64
2022/04/22 00:22:21;;;;;;;8.55;3.35;;;10.00;71.90;;;;;;5028783;28;20061;-64
2022/04/22 00:24:48;;;;;;;8.90;3.72;;;10.10;71.90;;;;;;5031732;28;20109;-64
2022/04/22 00:27:15;;;;;;;6.32;2.88;;;10.00;71.80;;;;;;5025162;28;20041;-64
2022/04/22 00:29:42;;;;;;;8.43;3.17;;;9.90;71.90;;;;;;5012491;28;20049;-65
2022/04/22 00:32:10;;;;;;;6.28;2.72;;;9.90;71.90;;;;;;5030920;28;20487;-64
2022/04/22 00:34:37;;;;;;;5.63;2.38;;;9.90;71.90;;;;;;5030902;28;20527;-64
2022/04/22 00:37:05;;;;;;;6.97;2.83;;;9.80;72.20;;;;;;5030313;28;20480;-64
2022/04/22 00:39:31;;;;;;;5.85;2.92;;;9.80;72.20;;;;;;5007653;28;20045;-63
2022/04/22 00:42:06;;;;;;;5.50;3.00;;;9.80;72.00;;;;;;5035991;28;20406;-63
2022/04/22 00:44:33;;;;;;;9.68;3.30;;;9.80;72.00;;;;;;5052580;28;20051;-65
2022/04/22 00:47:00;;;;;;;5.60;2.67;;;9.70;71.90;;;;;;5049541;28;20406;-64
2022/04/22 00:49:29;;;;;;;5.57;2.95;;;9.80;71.90;;;;;;5050341;28;20076;-65
2022/04/22 00:51:56;;;;;;;6.90;3.20;;;9.70;71.90;;;;;;5048952;28;20060;-66
2022/04/22 00:54:24;;;;;;;7.57;3.25;;;9.70;71.90;;;;;;5049242;28;20057;-64
2022/04/22 00:56:51;;;;;;;5.57;2.92;;;9.70;71.80;;;;;;5050213;28;20044;-64
2022/04/22 00:59:19;;;;;;;7.15;3.22;;;9.70;71.90;;;;;;5046371;28;20112;-64
2022/04/22 01:01:46;;;;;;;6.38;2.78;;;9.60;72.00;;;;;;5038594;28;20111;-62
2022/04/22 01:09:51;;;;;;;6.78;2.85;;;9.50;72.00;;;;;;5047140;28;20037;-64
2022/04/22 01:12:18;;;;;;;6.97;3.20;;;9.50;72.00;;;;;;5048473;28;20163;-65
2022/04/22 01:14:46;;;;;;;6.60;2.60;;;9.40;72.10;;;;;;5049408;28;20037;-64
2022/04/22 01:17:13;;;;;;;7.63;2.97;;;9.40;72.10;;;;;;5030708;28;20072;-64
2022/04/22 01:19:41;;;;;;;6.82;3.08;;;9.40;72.00;;;;;;5048485;28;20045;-64
2022/04/22 01:22:10;;;;;;;5.40;2.97;;;9.30;72.00;;;;;;5049422;28;20503;-63
2022/04/22 01:24:37;;;;;;;8.23;3.25;;;9.20;72.10;;;;;;5038843;28;20045;-64
2022/04/22 01:27:06;;;;;;;5.32;3.03;;;9.20;72.30;;;;;;5050200;28;20072;-63
2022/04/22 01:29:33;;;;;;;5.40;2.88;;;9.10;72.40;;;;;;5050826;28;20048;-62
2022/04/22 01:32:01;;;;;;;6.95;3.83;;;9.10;72.50;;;;;;5050313;28;20052;-63
2022/04/22 01:34:28;;;;;;;8.57;3.33;;;9.10;72.70;;;;;;5050256;28;20120;-63
2022/04/22 01:36:55;;;;;;;15.73;3.97;;;9.00;72.70;;;;;;5050818;28;20037;-64
2022/04/22 01:39:23;;;;;;;7.80;3.00;;;9.00;72.70;;;;;;5036780;28;20076;-66
2022/04/22 01:41:51;;;;;;;8.13;4.07;;;9.00;72.90;;;;;;5031651;28;20057;-63
2022/04/22 01:44:18;;;;;;;8.05;4.28;;;9.00;73.10;;;;;;5049608;28;20049;-63
2022/04/22 01:46:45;;;;;;;7.90;4.22;;;9.00;73.20;;;;;;5045803;28;20041;-64
2022/04/22 01:49:12;;;;;;;10.02;5.00;;;9.00;73.40;;;;;;5044436;28;20056;-64
2022/04/22 01:51:39;;;;;;;11.73;4.72;;;9.00;73.80;;;;;;5039908;28;20101;-64
2022/04/22 01:54:06;;;;;;;11.50;5.30;;;9.10;73.90;;;;;;5039723;28;20071;-63
2022/04/22 01:56:34;;;;;;;10.32;5.35;;;9.10;74.00;;;;;;5040554;28;20080;-64
2022/04/22 01:59:01;;;;;;;11.48;5.07;;;9.10;74.10;;;;;;5044452;28;20135;-64
2022/04/22 02:01:29;;;;;;;10.95;5.35;;;9.10;74.20;;;;;;5041619;28;20083;-64
2022/04/22 02:03:56;;;;;;;9.48;4.68;;;9.10;74.20;;;;;;5046876;28;20052;-64
2022/04/22 02:06:23;;;;;;;11.38;5.85;;;9.20;74.10;;;;;;5043897;28;20116;-64
2022/04/22 02:08:50;;;;;;;14.55;5.47;;;9.20;74.20;;;;;;5046742;28;20044;-63
2022/04/22 02:11:17;;;;;;;12.40;5.72;;;9.20;74.20;;;;;;5027380;28;20041;-63
2022/04/22 02:13:46;;;;;;;11.43;5.72;;;9.20;74.30;;;;;;5023722;28;20041;-64
2022/04/22 02:16:13;;;;;;;9.63;5.03;;;9.20;74.10;;;;;;5043644;28;20064;-63
2022/04/22 02:18:42;;;;;;;10.93;5.32;;;9.30;74.00;;;;;;5044863;28;20120;-64
2022/04/22 02:21:11;;;;;;;13.50;5.80;;;9.20;74.10;;;;;;5048120;28;20045;-64
2022/04/22 02:23:40;;;;;;;14.55;6.15;;;9.20;74.30;;;;;;5040862;28;20609;-64
2022/04/22 02:26:07;;;;;;;10.85;5.53;;;9.20;74.20;;;;;;5045244;28;20045;-64
2022/04/22 02:28:34;;;;;;;9.02;4.47;;;9.10;74.30;;;;;;5042280;28;20468;-65
2022/04/22 02:31:05;;;;;;;12.10;5.93;;;9.10;74.30;;;;;;5044416;28;20072;-64
2022/04/22 02:33:33;;;;;;;11.68;4.55;;;9.10;74.20;;;;;;5027298;28;20037;-64
2022/04/22 02:36:00;;;;;;;8.98;4.60;;;9.10;74.20;;;;;;5045536;28;20128;-64
2022/04/22 02:38:29;;;;;;;11.05;5.13;;;9.00;74.20;;;;;;5044461;28;20431;-64
2022/04/22 02:46:28;;;;;;;12.23;5.57;;;8.90;73.90;;;;;;5037603;28;20041;-66
2022/04/22 02:48:58;;;;;;;9.27;4.80;;;8.90;73.80;;;;;;5036730;28;20061;-65
2022/04/22 02:51:25;;;;;;;10.50;6.30;;;8.90;73.80;;;;;;5029814;28;20045;-66
2022/04/22 02:53:52;;;;;;;10.82;5.05;;;8.80;73.80;;;;;;5033551;28;20091;-64
2022/04/22 02:56:20;;;;;;;9.88;4.60;;;8.80;74.00;;;;;;5036535;28;20037;-64
2022/04/22 02:58:48;;;;;;;10.23;4.63;;;8.70;73.90;;;;;;5036494;28;20072;-63
2022/04/22 03:01:15;;;;;;;12.20;5.57;;;8.70;73.90;;;;;;5038641;28;20044;-64
2022/04/22 03:03:44;;;;;;;13.60;6.03;;;8.70;73.90;;;;;;5041389;28;20037;-64
2022/04/22 03:06:11;;;;;;;10.98;5.30;;;8.60;73.90;;;;;;5042347;28;20129;-63
2022/04/22 03:08:38;;;;;;;13.20;5.22;;;8.60;74.00;;;;;;5038515;28;20059;-64
2022/04/22 03:11:05;;;;;;;9.13;4.55;;;8.60;74.00;;;;;;5022924;28;20128;-63
2022/04/22 03:13:33;;;;;;;9.88;4.80;;;8.70;74.10;;;;;;5041324;28;20041;-65
2022/04/22 03:16:00;;;;;;;10.10;4.95;;;8.60;74.20;;;;;;5039453;28;20113;-64
2022/04/22 03:18:28;;;;;;;11.77;5.50;;;8.60;74.20;;;;;;5039042;28;20057;-65
2022/04/22 03:20:57;;;;;;;10.63;4.97;;;8.60;74.30;;;;;;5040820;28;20525;-63
2022/04/22 03:23:24;;;;;;;11.25;5.38;;;8.60;74.40;;;;;;5038055;28;20041;-64
2022/04/22 03:25:54;;;;;;;9.35;5.13;;;8.60;74.40;;;;;;5038650;28;20052;-64
2022/04/22 03:28:22;;;;;;;8.93;4.18;;;8.50;74.60;;;;;;5036883;28;20049;-64
2022/04/22 03:30:50;;;;;;;11.15;5.07;;;8.50;74.50;;;;;;5039003;28;20061;-65
2022/04/22 03:33:18;;;;;;;10.63;4.68;;;8.50;74.60;;;;;;5038225;28;20051;-64
2022/04/22 03:35:50;;;;;;;7.95;4.20;;;8.50;74.50;;;;;;5037392;28;20056;-62
2022/04/22 03:38:19;;;;;;;13.80;5.55;;;8.40;74.40;;;;;;5038049;28;20100;-64
2022/04/22 03:40:46;;;;;;;10.38;5.07;;;8.40;74.60;;;;;;5037345;28;20057;-64
2022/04/22 03:43:14;;;;;;;11.43;5.15;;;8.40;74.60;;;;;;5037497;28;20049;-64
2022/04/22 03:45:41;;;;;;;11.73;5.40;;;8.50;74.70;;;;;;5040766;28;20119;-64
2022/04/22 03:48:08;;;;;;;12.35;6.13;;;8.50;74.60;;;;;;5039533;28;20563;-63
2022/04/22 03:50:36;;;;;;;11.25;4.80;;;8.50;74.70;;;;;;5039094;28;20044;-63
2022/04/22 03:53:03;;;;;;;14.32;6.18;;;8.50;74.70;;;;;;5037774;28;20041;-65
2022/04/22 03:55:31;;;;;;;11.65;5.90;;;8.50;74.70;;;;;;5041566;28;20037;-65
2022/04/22 03:58:13;;;;;;;11.23;5.28;;;8.50;74.90;;;;;;5039812;28;20077;-64
2022/04/22 04:00:41;;;;;;;11.30;5.30;;;8.50;74.80;;;;;;5037829;28;20056;-63
2022/04/22 04:03:10;;;;;;;13.38;6.18;;;8.50;75.00;;;;;;5024894;28;20048;-64
2022/04/22 04:05:38;;;;;;;12.63;6.03;;;8.40;75.10;;;;;;5040832;28;20490;-64
2022/04/22 04:08:05;;;;;;;10.02;4.90;;;8.40;75.10;;;;;;5038907;28;20182;-64
2022/04/22 04:16:03;;;;;;;13.52;4.60;;;8.50;75.00;;;;;;5036033;28;20104;-63
2022/04/22 04:18:31;;;;;;;15.32;6.75;;;8.40;75.00;;;;;;5037800;28;20043;-64
2022/04/22 04:23:43;;;;;;;12.38;5.13;;;8.40;74.90;;;;;;5037248;28;20044;-64
2022/04/22 04:26:12;;;;;;;9.95;4.95;;;8.40;74.80;;;;;;5031088;28;20054;-65
2022/04/22 04:28:40;;;;;;;15.13;5.35;;;8.40;74.70;;;;;;5035743;28;20033;-65
2022/04/22 04:31:08;;;;;;;12.73;5.78;;;8.40;74.60;;;;;;5038343;28;20802;-65
2022/04/22 04:33:37;;;;;;;10.93;5.35;;;8.40;74.60;;;;;;5033292;28;20077;-64
2022/04/22 04:36:05;;;;;;;14.50;6.07;;;8.40;74.70;;;;;;5037284;28;20045;-65
2022/04/22 04:38:33;;;;;;;10.45;4.90;;;8.40;74.80;;;;;;5035980;28;20049;-65
2022/04/22 04:41:00;;;;;;;10.70;5.32;;;8.40;74.90;;;;;;5039906;28;20140;-65
2022/04/22 04:43:29;;;;;;;10.27;5.22;;;8.40;75.00;;;;;;5047524;28;20454;-64
2022/04/22 04:45:56;;;;;;;12.20;4.53;;;8.40;75.10;;;;;;5047873;28;20104;-64
2022/04/22 04:48:23;;;;;;;14.10;5.70;;;8.30;75.10;;;;;;5041956;28;20076;-64
2022/04/22 04:50:51;;;;;;;12.65;5.38;;;8.30;75.30;;;;;;5041458;28;20044;-64
2022/04/22 04:53:19;;;;;;;11.50;4.93;;;8.30;75.30;;;;;;5040741;28;20502;-65
2022/04/22 04:55:47;;;;;;;12.40;4.88;;;8.40;75.50;;;;;;5042779;28;20524;-65
2022/04/22 04:58:14;;;;;;;12.88;5.70;;;8.30;75.60;;;;;;5040459;28;20048;-64
2022/04/22 05:00:44;;;;;;;11.45;5.20;;;8.30;75.70;;;;;;5034055;28;20095;-64
2022/04/22 05:03:12;;;;;;;11.57;5.20;;;8.30;76.00;;;;;;5039400;28;20135;-64
2022/04/22 05:05:39;;;;;;;10.90;5.03;;;8.30;76.00;;;;;;5040992;28;20071;-64
2022/04/22 05:08:07;;;;;;;11.60;5.03;;;8.30;76.00;;;;;;5040916;28;20132;-64
2022/04/22 05:10:36;;;;;;;11.48;5.13;;;8.40;76.10;;;;;;5041983;28;20040;-64
2022/04/22 05:13:04;;;;;;;12.43;5.75;;;8.40;76.10;;;;;;5043802;28;20506;-64
2022/04/22 05:15:35;;;;;;;13.60;5.45;;;8.50;76.10;;;;;;5040842;28;20039;-64
2022/04/22 05:18:04;;;;;;;15.68;5.20;;;8.50;76.20;;;;;;5022191;28;20044;-64
2022/04/22 05:20:33;;;;;;;11.77;4.90;;;8.50;76.40;;;;;;5042671;28;20051;-63
2022/04/22 05:23:00;;;;;;;13.45;6.55;;;8.60;76.50;;;;;;5040315;28;20052;-64
2022/04/22 05:25:28;;;;;;;11.32;6.32;;;8.50;76.60;;;;;;5038852;28;20051;-63
2022/04/22 05:27:55;;;;;;;11.38;5.57;;;8.60;76.60;;;;;;5038010;28;20068;-63
2022/04/22 05:33:07;;;;;;;11.93;5.00;;;8.60;76.80;;;;;;5040617;28;20149;-64
2022/04/22 05:35:35;;;;;;;11.20;5.05;;;8.60;77.00;;;;;;5036672;28;20067;-63
2022/04/22 05:38:04;;;;;;;15.68;5.72;;;8.60;77.10;;;;;;5039596;28;20064;-65
2022/04/22 05:40:33;;;;;;;12.48;6.20;;;8.70;77.20;;;;;;5041344;28;20794;-64
2022/04/22 05:43:01;;;;;;;13.80;6.93;;;8.70;77.30;;;;;;5038376;28;20092;-64
2022/04/22 05:45:28;;;;;;;11.55;5.32;;;8.70;77.20;;;;;;5035355;28;20049;-64
2022/04/22 05:47:57;;;;;;;13.98;6.65;;;8.80;77.20;;;;;;5038309;28;20055;-64
2022/04/22 05:50:27;;;;;;;12.60;5.07;;;8.80;77.30;;;;;;5038230;28;20037;-65
2022/04/22 05:52:54;;;;;;;11.77;5.40;;;8.80;77.10;;;;;;5032914;28;20053;-63
2022/04/22 05:55:22;;;;;;;12.68;6.03;;;8.90;76.90;;;;;;5038734;28;20037;-64
2022/04/22 05:57:52;;;;;;;12.30;6.57;;;9.00;77.00;;;;;;5045729;28;20045;-65
2022/04/22 06:00:21;;;;;;;12.27;6.10;;;9.00;77.20;;;;;;5041083;28;20131;-63
2022/04/22 06:02:49;;;;;;;9.52;4.75;;;9.00;77.10;;;;;;5044834;28;20045;-63
2022/04/22 06:05:20;;;;;;;11.80;5.80;;;9.00;77.30;;;;;;5045067;28;20045;-64
2022/04/22 06:10:31;;;;;;;13.05;5.55;;;9.10;77.40;;;;;;5041170;28;20049;-65
2022/04/22 06:10:36;;;;;;;11.45;4.95;;;9.10;77.40;;;;;;5043939;28;20075;-63
2022/04/22 06:13:04;;;;;;;10.35;4.63;;;9.20;77.50;;;;;;5041849;28;20060;-65
2022/04/22 06:15:31;;;;;;;10.05;3.88;;;9.30;77.30;;;;;;5039559;28;20045;-64
2022/04/22 06:17:58;;;;;;;11.27;5.07;;;9.30;76.90;;;;;;5034495;28;20160;-63
2022/04/22 06:20:26;;;;;;;12.55;4.93;;;9.40;76.70;;;;;;5035369;28;20068;-64
2022/04/22 06:22:55;;;;;;;12.48;5.10;;;9.40;76.90;;;;;;5039406;28;20497;-64
2022/04/22 06:25:23;;;;;;;10.38;4.68;;;9.50;76.90;;;;;;5035469;28;20108;-63
2022/04/22 06:27:50;;;;;;;11.38;4.40;;;9.60;76.50;;;;;;5038130;28;20487;-64
2022/04/22 06:30:20;;;;;;;9.65;4.50;;;9.60;76.30;;;;;;5034481;28;20046;-64
2022/04/22 06:32:49;;;;;;;9.43;4.28;;;9.70;75.80;;;;;;5020518;28;20399;-63
2022/04/22 06:35:19;;;;;;;9.63;4.07;;;9.80;75.70;;;;;;5039402;28;20036;-64
2022/04/22 06:37:47;;;;;;;9.77;4.28;;;10.00;75.40;;;;;;5039865;28;20067;-63
2022/04/22 06:45:49;;;;;;;7.50;3.53;;;10.30;74.60;;;;;;5040278;28;20132;-64
2022/04/22 06:48:21;;;;;;;8.95;3.80;;;10.40;74.70;;;;;;5041585;28;20083;-63
2022/04/22 06:50:50;;;;;;;7.32;4.03;;;10.50;74.50;;;;;;5043517;28;20124;-64
2022/04/22 06:53:18;;;;;;;8.88;3.80;;;10.70;74.00;;;;;;5041006;28;20128;-64
2022/04/22 06:55:48;;;;;;;10.95;4.43;;;10.80;74.10;;;;;;5041829;28;20502;-64
2022/04/22 06:58:17;;;;;;;7.82;3.78;;;11.00;73.70;;;;;;5038196;28;20402;-63
2022/04/22 07:00:46;;;;;;;8.60;3.80;;;11.10;73.40;;;;;;5039201;28;20037;-64
2022/04/22 07:03:14;;;;;;;6.15;3.13;;;11.20;72.90;;;;;;5044923;28;20064;-63
2022/04/22 07:05:43;;;;;;;7.22;3.65;;;11.40;72.40;;;;;;5038452;28;20045;-63
2022/04/22 07:08:13;;;;;;;5.88;2.83;;;11.60;71.80;;;;;;5040226;28;20041;-63
2022/04/22 07:10:41;;;;;;;6.30;3.05;;;11.70;71.30;;;;;;5024305;28;20396;-64
2022/04/22 07:13:11;;;;;;;9.20;4.72;;;11.80;70.90;;;;;;5041763;28;20047;-64
2022/04/22 07:15:39;;;;;;;7.80;3.63;;;12.00;69.60;;;;;;5021419;28;20412;-64
2022/04/22 07:18:08;;;;;;;7.55;3.75;;;12.10;69.70;;;;;;5042427;28;20521;-64
2022/04/22 07:20:35;;;;;;;9.00;3.63;;;12.20;69.20;;;;;;5042538;28;20041;-63
2022/04/22 07:23:03;;;;;;;6.78;3.58;;;12.40;68.50;;;;;;5042845;28;20060;-63
2022/04/22 07:25:30;;;;;;;9.65;4.00;;;12.50;68.10;;;;;;5042012;28;20144;-63
2022/04/22 07:27:58;;;;;;;8.63;3.80;;;12.60;67.40;;;;;;5040001;28;20040;-64
2022/04/22 07:30:27;;;;;;;7.68;3.63;;;12.70;67.10;;;;;;5028775;28;20045;-65
2022/04/22 07:32:55;;;;;;;7.30;3.65;;;12.90;66.40;;;;;;5038586;28;20049;-63
2022/04/22 07:35:23;;;;;;;6.50;3.10;;;13.00;66.20;;;;;;5038238;28;20092;-63
2022/04/22 07:37:51;;;;;;;8.55;3.58;;;13.10;65.50;;;;;;5046289;28;20127;-63
2022/04/22 07:40:20;;;;;;;6.93;3.33;;;13.20;65.40;;;;;;5045705;28;20065;-63
2022/04/22 07:48:24;;;;;;;5.80;3.03;;;13.40;64.30;;;;;;5040222;28;20045;-64
2022/04/22 07:50:52;;;;;;;6.43;3.35;;;13.50;63.90;;;;;;5033317;28;20041;-64
2022/04/22 07:53:20;;;;;;;8.85;3.03;;;13.70;64.10;;;;;;5039882;28;20152;-64
2022/04/22 07:55:48;;;;;;;5.70;2.88;;;13.80;63.70;;;;;;5038274;28;20052;-63
2022/04/22 07:58:15;;;;;;;6.68;2.95;;;13.90;63.50;;;;;;5038386;28;20092;-63
2022/04/22 08:00:44;;;;;;;7.07;3.67;;;14.00;62.60;;;;;;5039946;28;22174;-71
2022/04/22 08:03:11;;;;;;;7.23;2.97;;;14.10;62.40;;;;;;5036291;28;20120;-70
2022/04/22 08:05:39;;;;;;;7.00;2.78;;;14.10;61.80;;;;;;5043541;28;20129;-72
2022/04/22 08:08:06;;;;;;;6.95;3.40;;;14.10;61.00;;;;;;5042480;28;20041;-71
2022/04/22 08:10:34;;;;;;;6.35;3.10;;;14.20;61.10;;;;;;5039931;28;20040;-70
2022/04/22 08:13:02;;;;;;;7.70;2.85;;;14.40;60.50;;;;;;5038042;28;20120;-70
2022/04/22 08:15:30;;;;;;;6.63;3.17;;;14.40;60.50;;;;;;5042637;28;20449;-71
2022/04/22 08:17:59;;;;;;;8.10;3.90;;;14.40;60.60;;;;;;5041821;28;20033;-71
2022/04/22 08:20:26;;;;;;;8.98;3.58;;;14.40;60.50;;;;;;5039165;28;20050;-70
2022/04/22 08:22:53;;;;;;;6.53;3.33;;;14.40;60.10;;;;;;5040521;28;20091;-70
2022/04/22 08:25:20;;;;;;;7.30;3.58;;;14.40;59.80;;;;;;5040042;28;20550;-71
2022/04/22 08:27:47;;;;;;;6.80;3.03;;;14.20;60.00;;;;;;5039919;28;20072;-71
2022/04/22 08:30:15;;;;;;;7.22;3.78;;;14.20;59.70;;;;;;5035721;28;20075;-71
2022/04/22 08:32:41;;;;;;;8.18;3.20;;;14.20;59.70;;;;;;5043195;28;20079;-71
2022/04/22 08:35:11;;;;;;;6.68;3.28;;;14.20;59.70;;;;;;5046411;28;20045;-71
2022/04/22 08:37:38;;;;;;;5.82;2.95;;;14.20;59.80;;;;;;5044042;28;20111;-70
2022/04/22 08:40:07;;;;;;;7.65;3.75;;;14.40;59.90;;;;;;5048262;28;20052;-71
2022/04/22 08:42:36;;;;;;;4.97;2.70;;;14.40;59.70;;;;;;5049080;28;20061;-70
2022/04/22 08:45:03;;;;;;;6.32;3.00;;;14.50;59.70;;;;;;5047066;28;20108;-71
2022/04/22 08:50:19;;;;;;;8.35;3.17;;;14.60;59.70;;;;;;5050962;28;20056;-71
2022/04/22 08:52:54;;;;;;;5.35;2.85;;;14.70;59.60;;;;;;5044355;28;20155;-70
2022/04/22 08:55:21;;;;;;;6.75;3.17;;;14.70;59.30;;;;;;5042360;28;20045;-71
2022/04/22 08:57:49;;;;;;;7.78;3.67;;;14.80;59.30;;;;;;5041195;28;20135;-71
2022/04/22 09:00:18;;;;;;;6.32;3.35;;;14.90;59.30;;;;;;5038035;28;20039;-70
2022/04/22 09:02:45;;;;;;;7.05;3.42;;;15.00;59.30;;;;;;5042043;28;20128;-71
2022/04/22 09:05:13;;;;;;;6.00;3.00;;;15.10;58.30;;;;;;5041707;28;20038;-70
2022/04/22 09:07:43;;;;;;;4.85;2.50;;;15.20;58.40;;;;;;5035592;28;20183;-71
2022/04/22 09:10:11;;;;;;;;;;;15.30;58.40;;;;;;5040109;28;20047;-70
2022/04/22 09:12:38;;;;;;;7.07;3.25;;;15.40;58.00;;;;;;5040050;28;19925;-72
2022/04/22 09:15:07;;;;;;;5.10;2.75;;;15.60;57.20;;;;;;5039058;28;20049;-71
2022/04/22 09:17:36;;;;;;;6.40;3.13;;;15.60;57.70;;;;;;5047818;28;20056;-71
2022/04/22 09:20:05;;;;;;;6.15;2.95;;;15.70;58.10;;;;;;5046161;28;20049;-70
2022/04/22 09:22:36;;;;;;;6.40;2.75;;;15.90;57.50;;;;;;5051037;28;20052;-72
2022/04/22 09:25:06;;;;;;;6.03;2.72;;;16.00;57.30;;;;;;5047349;28;20045;-71
2022/04/22 09:27:34;;;;;;;6.18;3.22;;;16.20;56.90;;;;;;5047314;28;20045;-70
2022/04/22 09:30:03;;;;;;;6.95;3.20;;;16.30;55.80;;;;;;5046310;28;20384;-71
2022/04/22 09:32:32;;;;;;;5.47;2.97;;;16.50;55.10;;;;;;5041206;28;20728;-71
2022/04/22 09:35:08;;;;;;;5.53;2.77;;;16.60;54.80;;;;;;5042252;28;20041;-70
2022/04/22 09:43:25;;;;;;;4.38;2.20;;;16.70;54.20;;;;;;5024323;28;20150;-71
2022/04/22 09:45:53;;;;;;;7.22;2.72;;;16.80;53.40;;;;;;5029347;28;20559;-70
2022/04/22 09:48:21;;;;;;;6.55;2.60;;;16.80;52.50;;;;;;5029578;28;20042;-70
2022/04/22 09:50:52;;;;;;;4.78;2.10;;;16.70;52.40;;;;;;5029678;28;20051;-71
2022/04/22 09:53:34;;;;;;;5.50;2.38;;;16.80;52.50;;;;;;5017125;28;20399;-71
2022/04/22 09:56:08;;;;;;;5.20;2.53;;;16.90;52.70;;;;;;5003821;28;20406;-71
2022/04/22 09:58:36;;;;;;;5.90;2.40;;;16.80;52.80;;;;;;5025098;28;20053;-71
2022/04/22 10:01:05;;;;;;;4.47;2.28;;;16.90;52.20;;;;;;5037040;28;20137;-70
2022/04/22 10:03:34;;;;;;;5.38;2.80;;;16.90;52.00;;;;;;5038258;28;20121;-71
2022/04/22 10:06:02;;;;;;;6.10;2.38;;;17.10;51.60;;;;;;5037240;28;20128;-70
2022/04/22 10:08:32;;;;;;;4.53;2.13;;;17.10;51.10;;;;;;5037193;28;20068;-70
2022/04/22 10:11:01;;;;;;;5.38;2.38;;;17.20;50.90;;;;;;5040816;28;20052;-72
2022/04/22 10:13:35;;;;;;;4.55;2.17;;;17.20;50.60;;;;;;5043967;28;20064;-71
2022/04/22 10:16:03;;;;;;;5.15;2.50;;;17.20;50.30;;;;;;5039876;28;20041;-71
2022/04/22 10:18:31;;;;;;;3.65;2.20;;;17.20;49.30;;;;;;5034528;28;20049;-71
2022/04/22 10:20:59;;;;;;;3.38;1.85;;;17.20;50.20;;;;;;5036861;28;20114;-70
2022/04/22 10:23:29;;;;;;;3.95;2.17;;;17.20;50.40;;;;;;5036983;28;20085;-71
2022/04/22 10:25:56;;;;;;;4.78;2.20;;;17.20;50.30;;;;;;5034852;28;20065;-72
2022/04/22 10:28:24;;;;;;;4.35;1.90;;;17.30;50.30;;;;;;5035422;28;20057;-70
2022/04/22 10:30:54;;;;;;;4.25;2.33;;;17.30;49.90;;;;;;5045562;28;20124;-72
2022/04/22 10:33:25;;;;;;;4.50;2.15;;;17.30;50.10;;;;;;5032164;28;20041;-69
2022/04/22 10:35:58;;;;;;;4.55;2.35;;;17.30;50.00;;;;;;5044174;28;20087;-71
2022/04/22 10:38:30;;;;;;;3.90;1.88;;;17.20;49.90;;;;;;5048526;28;20049;-72
2022/04/22 10:41:00;;;;;;;3.50;1.90;;;17.20;50.10;;;;;;5043086;28;20053;-71
2022/04/22 10:43:28;;;;;;;3.75;2.00;;;17.20;49.80;;;;;;5044783;28;20045;-71
2022/04/22 10:48:42;;;;;;;4.10;2.22;;;17.30;49.50;;;;;;5046489;28;20038;-72
2022/04/22 10:51:13;;;;;;;5.07;2.50;;;17.30;49.30;;;;;;5044389;28;20045;-71
2022/04/22 10:53:48;;;;;;;4.28;2.15;;;17.30;48.90;;;;;;5040628;28;20042;-71
2022/04/22 10:56:34;;;;;;;4.25;2.25;;;17.20;49.00;;;;;;5041383;28;20140;-71
2022/04/22 10:59:32;;;;;;;3.70;2.05;;;17.30;49.10;;;;;;5041857;28;20045;-71
2022/04/22 11:02:28;;;;;;;4.63;2.28;;;17.20;49.20;;;;;;5038399;28;20049;-70
2022/04/22 11:05:31;;;;;;;4.70;2.22;;;17.20;48.80;;;;;;5040155;28;20135;-71
2022/04/22 11:07:58;;;;;;;3.95;2.47;;;17.10;48.80;;;;;;5041953;28;20060;-70
2022/04/22 11:10:27;;;;;;;4.63;2.40;;;17.20;48.80;;;;;;5042416;28;20044;-71
2022/04/22 11:12:55;;;;;;;5.03;2.55;;;17.10;48.80;;;;;;5039040;28;20097;-71
2022/04/22 11:15:47;;;;;;;4.07;2.10;;;17.10;48.20;;;;;;5039403;28;20046;-71
2022/04/22 11:18:17;;;;;;;4.75;2.30;;;17.10;48.50;;;;;;5039505;28;20685;-72
2022/04/22 11:20:45;;;;;;;;;;;17.10;48.60;;;;;;5043903;28;20049;-70
2022/04/22 11:23:12;;;;;;;5.22;2.13;;;17.10;48.10;;;;;;5041465;28;19924;-72
2022/04/22 11:25:41;;;;;;;3.75;2.05;;;17.20;48.90;;;;;;5040963;28;20051;-72
2022/04/22 11:28:09;;;;;;;4.70;2.17;;;17.30;48.70;;;;;;5041048;28;20487;-72
2022/04/22 11:30:36;;;;;;;4.25;2.60;;;17.40;48.40;;;;;;5039743;28;20385;-72
2022/04/22 11:33:13;;;;;;;6.75;1.98;;;17.50;48.40;;;;;;5041968;28;20291;-72
2022/04/22 11:35:41;;;;;;;6.65;2.63;;;17.50;48.60;;;;;;5035837;28;20051;-72
2022/04/22 11:38:09;;;;;;;3.90;2.38;;;17.50;48.20;;;;;;5034779;28;20053;-71
2022/04/22 11:40:39;;;;;;;6.55;2.35;;;17.60;47.80;;;;;;5040810;28;20053;-72
2022/04/22 11:43:07;;;;;;;6.47;2.40;;;17.60;47.90;;;;;;5039676;28;20049;-70
2022/04/22 11:45:36;;;;;;;5.60;2.55;;;17.60;48.00;;;;;;5040117;28;20119;-71
2022/04/22 11:48:10;;;;;;;5.60;2.97;;;17.60;48.40;;;;;;5038393;28;20045;-70
2022/04/22 11:50:43;;;;;;;6.80;2.47;;;17.60;48.40;;;;;;5040918;28;20143;-73
2022/04/22 11:53:15;;;;;;;5.47;2.65;;;17.70;48.60;;;;;;5038631;28;20097;-72
2022/04/22 11:55:43;;;;;;;9.90;2.58;;;17.70;48.60;;;;;;5041531;28;20510;-72
2022/04/22 11:58:10;;;;;;;5.10;2.53;;;17.80;48.50;;;;;;5040724;28;20388;-73
2022/04/22 12:06:13;;;;;;;5.05;2.40;;;18.10;49.00;;;;;;5040154;28;20091;-72
2022/04/22 12:08:51;;;;;;;5.50;2.50;;;18.10;48.70;;;;;;5039759;28;20045;-72
2022/04/22 12:11:19;;;;;;;4.75;2.40;;;18.10;48.00;;;;;;5039278;28;20406;-72
2022/04/22 12:13:46;;;;;;;4.40;2.08;;;18.20;47.60;;;;;;5034770;28;20095;-72
2022/04/22 12:16:18;;;;;;;5.30;2.30;;;18.20;47.50;;;;;;5039606;28;20099;-71
2022/04/22 12:18:48;;;;;;;3.35;2.00;;;18.20;47.70;;;;;;5037722;28;20045;-73
2022/04/22 12:21:17;;;;;;;3.80;2.15;;;18.20;48.00;;;;;;5038865;28;20103;-72
2022/04/22 12:23:46;;;;;;;;;;;18.20;47.80;;;;;;5039963;28;20069;-70
2022/04/22 12:26:18;;;;;;;4.65;2.30;;;18.20;46.90;;;;;;5038018;28;19936;-71
2022/04/22 12:28:57;;;;;;;4.30;2.45;;;18.20;46.10;;;;;;5040457;28;20056;-72
2022/04/22 12:31:25;;;;;;;3.40;2.00;;;18.20;45.60;;;;;;5037974;28;20041;-72
2022/04/22 12:33:57;;;;;;;4.68;2.35;;;18.10;45.70;;;;;;5039770;28;20523;-72
2022/04/22 12:36:26;;;;;;;3.83;1.73;;;18.10;45.70;;;;;;5040765;28;20073;-70
2022/04/22 12:38:53;;;;;;;3.95;1.83;;;18.00;46.60;;;;;;5037638;28;20042;-72
2022/04/22 12:41:22;;;;;;;4.47;1.95;;;18.00;47.00;;;;;;5033805;28;20137;-72
2022/04/22 12:43:51;;;;;;;4.25;2.10;;;18.00;47.00;;;;;;5039818;28;20096;-73
2022/04/22 12:52:16;;;;;;;4.10;2.00;;;18.00;45.40;;;;;;5050470;28;20060;-73
2022/04/22 12:54:45;;;;;;;3.72;2.05;;;17.90;46.10;;;;;;5049905;28;20046;-72
2022/04/22 12:57:22;;;;;;;3.83;2.33;;;18.00;46.30;;;;;;5047912;28;20029;-72
2022/04/22 12:59:52;;;;;;;4.07;2.00;;;17.90;46.20;;;;;;5048088;28;20053;-71
2022/04/22 13:02:20;;;;;;;3.50;1.90;;;17.90;46.20;;;;;;5047448;28;20437;-73
2022/04/22 13:04:51;;;;;;;4.22;2.67;;;17.80;46.20;;;;;;5051482;28;20491;-73
2022/04/22 13:07:21;;;;;;;4.63;2.10;;;17.80;46.20;;;;;;5050799;28;20513;-72
2022/04/22 13:09:48;;;;;;;4.90;2.60;;;17.80;46.30;;;;;;5050623;28;20146;-71
2022/04/22 13:12:15;;;;;;;6.20;2.90;;;17.80;46.50;;;;;;5050876;28;20100;-72
2022/04/22 13:14:42;;;;;;;4.95;2.58;;;17.90;46.10;;;;;;5049355;28;20061;-72
2022/04/22 13:17:20;;;;;;;3.42;1.95;;;17.90;46.30;;;;;;5048610;28;20549;-72
2022/04/22 13:19:47;;;;;;;2.80;1.80;;;17.90;46.40;;;;;;5050617;28;20041;-72
2022/04/22 13:22:14;;;;;;;6.13;2.53;;;17.90;46.20;;;;;;5049761;28;20128;-73
2022/04/22 13:24:44;;;;;;;3.58;2.10;;;17.90;46.40;;;;;;5050053;28;20045;-74
2022/04/22 13:27:13;;;;;;;3.35;2.00;;;18.00;46.30;;;;;;5047972;28;20064;-72
2022/04/22 13:29:40;;;;;;;3.97;2.20;;;18.00;46.60;;;;;;5049209;28;20065;-73
2022/04/22 13:32:08;;;;;;;5.25;2.50;;;18.00;46.40;;;;;;5048441;28;20048;-73
2022/04/22 13:35:05;;;;;;;3.65;1.98;;;18.00;46.40;;;;;;5051926;28;20053;-74
2022/04/22 13:37:33;;;;;;;4.15;2.38;;;18.00;46.20;;;;;;5050375;28;20140;-74
2022/04/22 13:40:01;;;;;;;4.50;2.20;;;18.00;46.00;;;;;;5050087;28;20053;-73
2022/04/22 13:42:28;;;;;;;4.00;2.00;;;18.10;46.20;;;;;;5049867;28;20057;-72
2022/04/22 13:53:09;;;;;;;4.72;2.33;;;17.90;45.70;;;;;;5050562;28;20053;-74
2022/04/22 13:55:39;;;;;;;5.20;2.85;;;17.90;46.00;;;;;;5050814;28;20041;-74
2022/04/22 13:58:06;;;;;;;5.45;3.00;;;17.80;45.90;;;;;;5050905;28;20055;-73
2022/04/22 14:00:34;;;;;;;4.90;2.55;;;17.80;45.80;;;;;;5046162;28;20052;-73